createdAt,value
2022-09-05T00:03:32.218Z,16.50
2022-09-05T00:06:37.753Z,16.40
2022-09-05T00:09:14.585Z,16.40
2022-09-05T00:12:02.161Z,16.40
2022-09-05T00:19:30.509Z,16.30
2022-09-05T00:24:27.280Z,16.30
2022-09-05T00:24:54.723Z,16.30
2022-09-05T00:27:35.874Z,16.20
2022-09-05T00:31:05.558Z,16.10
2022-09-05T00:33:19.235Z,16.20
2022-09-05T00:36:02.553Z,16.20
2022-09-05T00:38:36.862Z,16.20
2022-09-05T00:41:08.933Z,16.20
2022-09-05T00:43:45.911Z,16.10
2022-09-05T00:46:22.971Z,16.10
2022-09-05T00:49:00.072Z,16.00
2022-09-05T00:51:36.535Z,16.00
2022-09-05T00:54:32.600Z,16.00
2022-09-05T00:57:36.002Z,16.00
2022-09-05T01:00:18.279Z,16.00
2022-09-05T01:03:10.634Z,15.90
2022-09-05T01:05:59.663Z,15.90
2022-09-05T01:08:43.628Z,15.90
2022-09-05T01:11:19.547Z,15.80
2022-09-05T01:13:55.337Z,15.80
2022-09-05T01:16:35.065Z,15.80
2022-09-05T01:22:43.410Z,15.70
2022-09-05T01:25:27.243Z,15.70
2022-09-05T01:29:14.392Z,15.70
2022-09-05T01:30:56.966Z,15.70
2022-09-05T01:40:11.569Z,15.60
2022-09-05T01:43:22.846Z,15.60
2022-09-05T01:46:22.141Z,15.60
2022-09-05T02:11:35.532Z,15.50
2022-09-05T02:18:22.784Z,15.60
2022-09-05T02:21:32.500Z,15.50
2022-09-05T02:24:41.365Z,15.40
2022-09-05T02:31:18.840Z,15.30
2022-09-05T02:34:02.094Z,15.30
2022-09-05T02:36:43.288Z,15.20
2022-09-05T02:45:00.757Z,15.20
2022-09-05T02:45:11.900Z,15.00
2022-09-05T02:45:29.678Z,15.00
2022-09-05T02:48:14.751Z,14.90
2022-09-05T02:57:23.029Z,14.90
2022-09-05T02:57:25.226Z,14.90
2022-09-05T03:00:11.229Z,14.80
2022-09-05T03:03:00.020Z,14.80
2022-09-05T03:05:36.769Z,14.80
2022-09-05T03:08:18.946Z,14.70
2022-09-05T03:11:30.616Z,14.70
2022-09-05T03:14:51.174Z,14.70
2022-09-05T03:18:19.917Z,14.60
2022-09-05T03:21:28.043Z,14.60
2022-09-05T03:24:26.289Z,14.60
2022-09-05T03:27:31.192Z,14.60
2022-09-05T03:30:15.762Z,14.60
2022-09-05T03:33:21.203Z,14.50
2022-09-05T03:36:44.956Z,14.50
2022-09-05T03:39:40.449Z,14.50
2022-09-05T03:42:33.503Z,14.50
2022-09-05T04:53:20.343Z,14.20
2022-09-05T04:55:55.628Z,14.20
2022-09-05T05:00:38.180Z,14.20
2022-09-05T05:08:06.387Z,14.30
2022-09-05T05:14:04.025Z,14.30
2022-09-05T05:17:57.835Z,14.30
2022-09-05T05:18:15.154Z,14.30
2022-09-05T05:19:31.876Z,14.30
2022-09-05T05:22:04.026Z,14.30
2022-09-05T05:24:35.496Z,14.30
2022-09-05T05:27:12.829Z,14.30
2022-09-05T05:29:50.592Z,14.40
2022-09-05T05:32:31.538Z,14.50
2022-09-05T05:35:15.357Z,14.60
2022-09-05T05:37:46.590Z,14.60
2022-09-05T05:40:25.693Z,14.70
2022-09-05T05:43:15.573Z,14.80
2022-09-05T05:48:31.692Z,15.00
2022-09-05T05:54:39.152Z,15.30
2022-09-05T05:57:27.497Z,15.40
2022-09-05T06:00:15.249Z,15.30
2022-09-05T06:03:29.891Z,15.80
2022-09-05T06:06:13.685Z,13.30
2022-09-05T06:14:38.832Z,15.60
2022-09-05T06:15:02.366Z,15.60
2022-09-05T06:16:06.567Z,15.80
2022-09-05T06:19:18.271Z,15.90
2022-09-05T06:22:21.421Z,15.90
2022-09-05T06:25:43.331Z,16.00
2022-09-05T06:28:20.105Z,16.00
2022-09-05T06:31:30.893Z,16.10
2022-09-05T06:56:52.408Z,17.00
2022-09-05T07:00:22.188Z,17.00
2022-09-05T07:03:18.602Z,17.20
2022-09-05T07:05:56.573Z,17.20
2022-09-05T07:08:36.221Z,17.30
2022-09-05T07:11:16.364Z,17.20
2022-09-05T07:13:58.681Z,17.30
2022-09-05T07:16:42.053Z,17.30
2022-09-05T07:19:31.895Z,17.40
2022-09-05T07:22:29.622Z,19.70
2022-09-05T07:25:09.094Z,17.50
2022-09-05T07:28:25.627Z,17.50
2022-09-05T07:30:34.845Z,17.60
2022-09-05T07:33:05.187Z,17.60
2022-09-05T07:35:41.386Z,17.60
2022-09-05T07:38:15.247Z,17.60
2022-09-05T07:40:51.871Z,17.70
2022-09-05T07:43:26.586Z,19.40
2022-09-05T07:46:11.510Z,17.90
2022-09-05T07:48:44.477Z,17.90
2022-09-05T07:56:49.625Z,18.10
2022-09-05T07:56:59.809Z,18.20
2022-09-05T07:57:31.292Z,18.30
2022-09-05T08:00:06.398Z,18.50
2022-09-05T08:02:36.107Z,18.60
2022-09-05T08:05:05.419Z,18.70
2022-09-05T08:07:49.271Z,18.70
2022-09-05T08:10:35.829Z,18.90
2022-09-05T08:13:24.400Z,19.10
2022-09-05T08:16:11.129Z,19.10
2022-09-05T08:18:47.766Z,19.20
2022-09-05T08:21:27.260Z,19.20
2022-09-05T08:24:00.030Z,19.20
2022-09-05T08:26:37.252Z,19.30
2022-09-05T08:29:13.181Z,19.50
2022-09-05T08:31:45.158Z,19.50
2022-09-05T08:34:27.742Z,20.60
2022-09-05T08:42:17.100Z,19.70
2022-09-05T08:46:40.605Z,19.60
2022-09-05T08:47:58.454Z,19.70
2022-09-05T08:50:36.879Z,19.80
2022-09-05T08:53:28.984Z,20.00
2022-09-05T08:56:11.299Z,20.00
2022-09-05T08:59:31.601Z,20.10
2022-09-05T09:02:46.553Z,20.20
2022-09-05T09:05:14.437Z,20.50
2022-09-05T09:07:54.667Z,20.60
2022-09-05T09:10:32.797Z,20.70
2022-09-05T09:13:21.768Z,20.70
2022-09-05T09:16:04.815Z,20.80
2022-09-05T09:18:44.819Z,20.90
2022-09-05T09:21:29.858Z,20.90
2022-09-05T09:24:43.352Z,21.00
2022-09-05T09:27:52.289Z,16.60
2022-09-05T09:30:14.840Z,19.40
2022-09-05T09:32:49.486Z,21.30
2022-09-05T09:35:24.141Z,21.20
2022-09-05T09:38:27.621Z,20.10
2022-09-05T09:44:53.163Z,21.60
2022-09-05T09:54:45.801Z,21.80
2022-09-05T10:01:20.050Z,22.00
2022-09-05T10:10:45.542Z,22.20
2022-09-05T10:11:08.727Z,22.10
2022-09-05T10:11:53.022Z,22.20
2022-09-05T10:15:13.266Z,22.30
2022-09-05T10:18:23.007Z,22.50
2022-09-05T10:21:18.144Z,22.40
2022-09-05T10:24:35.446Z,22.70
2022-09-05T10:27:30.216Z,22.70
2022-09-05T10:35:18.206Z,22.90
2022-09-05T10:39:29.199Z,23.00
2022-09-05T10:42:08.906Z,23.10
2022-09-05T10:52:40.696Z,23.40
2022-09-05T10:55:22.087Z,23.60
2022-09-05T10:58:15.078Z,23.80
2022-09-05T11:02:24.098Z,23.80
2022-09-05T11:03:55.035Z,23.80
2022-09-05T11:10:24.892Z,23.80
2022-09-05T11:13:09.156Z,22.30
2022-09-05T11:16:03.783Z,24.30
2022-09-05T11:18:57.153Z,24.40
2022-09-05T11:22:22.617Z,24.40
2022-09-05T11:24:55.777Z,24.50
2022-09-05T11:27:33.563Z,24.60
2022-09-05T11:30:08.455Z,24.60
2022-09-05T11:39:52.354Z,25.00
2022-09-05T11:40:08.556Z,25.20
2022-09-05T11:42:01.751Z,25.30
2022-09-05T12:04:13.028Z,25.70
2022-09-05T12:23:20.908Z,26.60
2022-09-05T12:33:59.346Z,27.00
2022-09-05T12:36:07.972Z,27.00
2022-09-05T12:41:45.265Z,27.40
2022-09-05T12:44:41.052Z,27.40
2022-09-05T12:50:28.620Z,27.20
2022-09-05T13:45:31.744Z,29.00
2022-09-05T13:57:58.581Z,29.60
2022-09-05T14:01:23.401Z,29.60
2022-09-05T14:08:05.180Z,30.70
2022-09-05T14:11:03.157Z,29.90
2022-09-05T14:13:47.903Z,28.80
2022-09-05T14:19:35.427Z,28.70
2022-09-05T14:22:22.393Z,29.00
2022-09-05T14:24:58.466Z,29.00
2022-09-05T14:27:52.082Z,30.30
2022-09-05T14:33:01.059Z,29.90
2022-09-05T14:49:13.531Z,30.90
2022-09-05T15:02:52.291Z,29.00
2022-09-05T15:12:20.126Z,28.20
2022-09-05T15:29:37.562Z,27.40
2022-09-05T15:32:17.164Z,27.50
2022-09-05T15:40:22.464Z,28.60
2022-09-05T15:42:56.831Z,29.70
2022-09-05T15:45:29.956Z,30.50
2022-09-05T15:48:12.802Z,30.40
2022-09-05T15:50:50.448Z,30.00
2022-09-05T15:53:25.634Z,29.90
2022-09-05T15:56:01.093Z,30.10
2022-09-05T15:58:52.619Z,30.20
2022-09-05T16:01:58.411Z,30.20
2022-09-05T16:06:41.429Z,30.20
2022-09-05T16:10:43.751Z,30.20
2022-09-05T16:12:52.536Z,30.10
2022-09-05T16:16:55.067Z,29.80
2022-09-05T16:23:14.997Z,29.50
2022-09-05T16:23:27.782Z,29.60
2022-09-05T16:24:06.439Z,29.50
2022-09-05T16:26:41.879Z,29.50
2022-09-05T16:29:25.228Z,29.50
2022-09-05T16:32:11.908Z,29.40
2022-09-05T16:34:50.319Z,29.30
2022-09-05T16:37:25.473Z,29.00
2022-09-05T16:39:58.725Z,28.90
2022-09-05T16:42:46.692Z,28.90
2022-09-05T16:45:23.619Z,28.80
2022-09-05T16:48:05.441Z,28.80
2022-09-05T16:50:44.173Z,28.60
2022-09-05T16:53:30.750Z,28.10
2022-09-05T16:56:04.579Z,28.00
2022-09-05T16:58:36.464Z,27.80
2022-09-05T17:01:37.911Z,27.80
2022-09-05T17:04:18.609Z,27.30
2022-09-05T17:06:58.842Z,27.30
2022-09-05T17:09:29.615Z,26.50
2022-09-05T17:12:02.117Z,26.10
2022-09-05T17:14:36.165Z,25.90
2022-09-05T17:17:56.568Z,25.60
2022-09-05T17:27:22.890Z,25.30
2022-09-05T17:54:50.164Z,23.60
2022-09-05T17:57:40.115Z,23.40
2022-09-05T18:00:59.670Z,23.30
2022-09-05T18:10:12.537Z,19.30
2022-09-05T18:13:13.382Z,23.00
2022-09-05T18:16:13.619Z,22.80
2022-09-05T18:19:33.469Z,22.70
2022-09-05T18:21:49.772Z,22.60
2022-09-05T18:24:25.169Z,22.50
2022-09-05T18:27:43.037Z,22.40
2022-09-05T18:30:08.029Z,22.30
2022-09-05T18:32:42.982Z,22.20
2022-09-05T18:35:37.298Z,22.20
2022-09-05T18:38:17.521Z,22.20
2022-09-05T18:40:57.402Z,22.10
2022-09-05T18:43:34.132Z,21.90
2022-09-05T18:46:08.312Z,21.90
2022-09-05T18:49:15.920Z,21.80
2022-09-05T18:51:42.872Z,21.70
2022-09-05T18:54:20.572Z,21.60
2022-09-05T18:57:26.974Z,21.60
2022-09-05T18:59:51.472Z,21.50
2022-09-05T19:02:34.865Z,21.60
2022-09-05T19:05:18.102Z,21.50
2022-09-05T19:07:50.287Z,21.50
2022-09-05T19:10:34.629Z,21.30
2022-09-05T19:13:11.667Z,21.30
2022-09-05T19:15:53.123Z,21.30
2022-09-05T19:19:10.339Z,21.30
2022-09-05T19:36:53.680Z,21.00
2022-09-05T19:37:04.343Z,20.80
2022-09-05T19:41:34.663Z,20.70
2022-09-05T19:47:27.139Z,20.60
2022-09-05T19:47:36.820Z,20.50
2022-09-05T19:50:40.004Z,20.40
2022-09-05T19:53:09.625Z,20.40
2022-09-05T19:55:39.733Z,20.30
2022-09-05T19:58:20.206Z,20.30
2022-09-05T20:01:02.252Z,20.20
2022-09-05T20:03:38.759Z,20.20
2022-09-05T20:06:29.369Z,20.20
2022-09-05T20:09:10.972Z,20.10
2022-09-05T20:14:38.374Z,20.10
2022-09-05T20:17:23.185Z,19.90
2022-09-05T20:22:47.270Z,19.30
2022-09-05T20:25:35.380Z,20.00
2022-09-05T20:28:10.100Z,20.00
2022-09-05T20:30:43.597Z,20.00
2022-09-05T20:33:17.987Z,20.00
2022-09-05T20:43:20.491Z,19.90
2022-09-05T20:44:24.879Z,20.00
2022-09-05T20:54:13.324Z,20.00
2022-09-05T20:54:14.299Z,19.80
2022-09-05T20:54:26.661Z,19.80
2022-09-05T20:55:41.783Z,19.60
2022-09-05T20:58:12.734Z,19.60
2022-09-05T21:01:20.440Z,19.60
2022-09-05T21:03:45.399Z,19.50
2022-09-05T21:06:24.007Z,19.50
2022-09-05T21:11:34.480Z,19.40
2022-09-05T21:14:05.190Z,19.30
2022-09-05T21:16:37.382Z,19.30
2022-09-05T21:19:06.231Z,19.20
2022-09-05T21:21:36.495Z,19.00
2022-09-05T21:24:17.235Z,18.90
2022-09-05T21:26:50.561Z,18.90
2022-09-05T21:29:33.149Z,18.90
2022-09-05T21:32:10.549Z,18.80
2022-09-05T21:37:16.375Z,18.80
2022-09-05T21:40:00.501Z,18.80
2022-09-05T21:47:35.193Z,18.70
2022-09-05T21:47:42.545Z,18.70
2022-09-05T21:48:15.351Z,18.70
2022-09-05T21:50:46.625Z,18.60
2022-09-05T21:57:53.650Z,18.60
2022-09-05T21:59:32.700Z,18.60
2022-09-05T22:07:33.654Z,18.60
2022-09-05T22:12:38.794Z,18.60
2022-09-05T22:15:27.645Z,18.60
2022-09-05T22:20:51.201Z,18.50
2022-09-05T22:23:42.475Z,18.50
2022-09-05T22:39:44.696Z,18.50
2022-09-05T22:42:13.719Z,18.60
2022-09-05T22:49:53.161Z,15.60
2022-09-05T23:04:45.598Z,18.50
2022-09-05T23:07:13.684Z,18.40
2022-09-05T23:22:05.847Z,18.40
2022-09-05T23:24:34.387Z,18.40
2022-09-05T23:29:31.328Z,18.30
2022-09-05T23:40:42.455Z,18.30
2022-09-05T23:43:10.778Z,18.30
2022-09-05T23:45:38.849Z,20.80
2022-09-05T23:48:11.548Z,18.30
2022-09-05T23:50:41.041Z,18.20
2022-09-05T23:53:09.484Z,18.20
2022-09-05T23:55:37.606Z,18.20
